sensor_id;sensor_type;location;lat;lon;timestamp;P1;durP1;ratioP1;P2;durP2;ratioP2
57067;SDS011;43391;47.448;18.904;2022-08-25T00:02:05;12.85;;;7.90;;
57067;SDS011;43391;47.448;18.904;2022-08-25T00:04:32;14.83;;;8.20;;
57067;SDS011;43391;47.448;18.904;2022-08-25T00:06:59;18.05;;;8.13;;
57067;SDS011;43391;47.448;18.904;2022-08-25T00:09:26;14.77;;;8.00;;
57067;SDS011;43391;47.448;18.904;2022-08-25T00:11:52;12.77;;;7.43;;
57067;SDS011;43391;47.448;18.904;2022-08-25T00:14:20;14.27;;;7.80;;
57067;SDS011;43391;47.448;18.904;2022-08-25T00:16:48;16.77;;;8.48;;
57067;SDS011;43391;47.448;18.904;2022-08-25T00:19:16;16.77;;;8.48;;
57067;SDS011;43391;47.448;18.904;2022-08-25T00:21:44;12.60;;;7.55;;
57067;SDS011;43391;47.448;18.904;2022-08-25T00:24:13;16.00;;;8.82;;
57067;SDS011;43391;47.448;18.904;2022-08-25T00:26:41;14.70;;;7.95;;
57067;SDS011;43391;47.448;18.904;2022-08-25T00:29:10;17.30;;;7.47;;
57067;SDS011;43391;47.448;18.904;2022-08-25T00:31:36;13.80;;;7.82;;
57067;SDS011;43391;47.448;18.904;2022-08-25T00:34:02;17.52;;;8.27;;
57067;SDS011;43391;47.448;18.904;2022-08-25T00:36:31;17.00;;;7.45;;
57067;SDS011;43391;47.448;18.904;2022-08-25T00:38:57;13.85;;;8.30;;
57067;SDS011;43391;47.448;18.904;2022-08-25T00:41:23;17.15;;;8.52;;
57067;SDS011;43391;47.448;18.904;2022-08-25T00:43:51;12.82;;;8.38;;
57067;SDS011;43391;47.448;18.904;2022-08-25T00:46:23;16.13;;;7.50;;
57067;SDS011;43391;47.448;18.904;2022-08-25T00:48:54;10.20;;;6.53;;
57067;SDS011;43391;47.448;18.904;2022-08-25T00:51:46;13.70;;;7.40;;
57067;SDS011;43391;47.448;18.904;2022-08-25T00:54:17;15.63;;;7.93;;
57067;SDS011;43391;47.448;18.904;2022-08-25T00:56:47;14.27;;;7.90;;
57067;SDS011;43391;47.448;18.904;2022-08-25T01:01:41;16.77;;;6.75;;
57067;SDS011;43391;47.448;18.904;2022-08-25T01:04:07;14.93;;;7.35;;
57067;SDS011;43391;47.448;18.904;2022-08-25T01:06:33;14.32;;;7.47;;
57067;SDS011;43391;47.448;18.904;2022-08-25T01:09:01;10.40;;;6.80;;
57067;SDS011;43391;47.448;18.904;2022-08-25T01:11:27;15.57;;;7.40;;
57067;SDS011;43391;47.448;18.904;2022-08-25T01:13:53;17.17;;;8.15;;
57067;SDS011;43391;47.448;18.904;2022-08-25T01:16:21;17.20;;;7.60;;
57067;SDS011;43391;47.448;18.904;2022-08-25T01:18:51;11.00;;;6.72;;
57067;SDS011;43391;47.448;18.904;2022-08-25T01:21:19;19.95;;;9.40;;
57067;SDS011;43391;47.448;18.904;2022-08-25T01:23:47;17.95;;;7.55;;
57067;SDS011;43391;47.448;18.904;2022-08-25T01:26:16;12.60;;;7.10;;
57067;SDS011;43391;47.448;18.904;2022-08-25T01:28:47;17.58;;;8.25;;
57067;SDS011;43391;47.448;18.904;2022-08-25T01:31:32;17.23;;;6.75;;
57067;SDS011;43391;47.448;18.904;2022-08-25T01:33:59;18.50;;;8.13;;
57067;SDS011;43391;47.448;18.904;2022-08-25T01:36:25;15.55;;;7.63;;
57067;SDS011;43391;47.448;18.904;2022-08-25T01:38:53;16.67;;;8.52;;
57067;SDS011;43391;47.448;18.904;2022-08-25T01:41:44;18.75;;;7.60;;
57067;SDS011;43391;47.448;18.904;2022-08-25T01:44:04;13.88;;;6.90;;
57067;SDS011;43391;47.448;18.904;2022-08-25T01:46:30;16.15;;;7.45;;
57067;SDS011;43391;47.448;18.904;2022-08-25T01:48:56;19.05;;;8.63;;
57067;SDS011;43391;47.448;18.904;2022-08-25T01:51:23;18.20;;;6.82;;
57067;SDS011;43391;47.448;18.904;2022-08-25T01:53:49;14.52;;;8.82;;
57067;SDS011;43391;47.448;18.904;2022-08-25T01:56:15;16.50;;;8.35;;
57067;SDS011;43391;47.448;18.904;2022-08-25T01:58:43;16.42;;;8.57;;
57067;SDS011;43391;47.448;18.904;2022-08-25T02:01:15;12.98;;;8.90;;
57067;SDS011;43391;47.448;18.904;2022-08-25T02:03:44;16.65;;;8.40;;
57067;SDS011;43391;47.448;18.904;2022-08-25T02:06:12;17.83;;;8.82;;
57067;SDS011;43391;47.448;18.904;2022-08-25T02:08:43;13.65;;;8.18;;
57067;SDS011;43391;47.448;18.904;2022-08-25T02:11:11;14.02;;;6.75;;
57067;SDS011;43391;47.448;18.904;2022-08-25T02:13:38;13.77;;;8.07;;
57067;SDS011;43391;47.448;18.904;2022-08-25T02:16:04;18.05;;;7.88;;
57067;SDS011;43391;47.448;18.904;2022-08-25T02:18:32;12.55;;;7.63;;
57067;SDS011;43391;47.448;18.904;2022-08-25T02:20:57;12.63;;;7.00;;
57067;SDS011;43391;47.448;18.904;2022-08-25T02:23:22;13.73;;;7.82;;
57067;SDS011;43391;47.448;18.904;2022-08-25T02:25:48;19.42;;;8.15;;
57067;SDS011;43391;47.448;18.904;2022-08-25T02:28:13;16.60;;;6.95;;
57067;SDS011;43391;47.448;18.904;2022-08-25T02:30:39;16.08;;;9.18;;
57067;SDS011;43391;47.448;18.904;2022-08-25T02:33:07;18.50;;;9.20;;
57067;SDS011;43391;47.448;18.904;2022-08-25T02:35:33;18.75;;;8.73;;
57067;SDS011;43391;47.448;18.904;2022-08-25T02:37:58;14.80;;;8.75;;
57067;SDS011;43391;47.448;18.904;2022-08-25T02:40:24;13.65;;;8.07;;
57067;SDS011;43391;47.448;18.904;2022-08-25T02:42:50;13.80;;;7.53;;
57067;SDS011;43391;47.448;18.904;2022-08-25T02:45:16;11.82;;;7.20;;
57067;SDS011;43391;47.448;18.904;2022-08-25T02:47:43;10.93;;;7.43;;
57067;SDS011;43391;47.448;18.904;2022-08-25T02:50:09;12.57;;;7.30;;
57067;SDS011;43391;47.448;18.904;2022-08-25T02:52:34;17.33;;;7.93;;
57067;SDS011;43391;47.448;18.904;2022-08-25T02:55:01;12.93;;;7.43;;
57067;SDS011;43391;47.448;18.904;2022-08-25T02:57:29;12.65;;;7.63;;
57067;SDS011;43391;47.448;18.904;2022-08-25T02:59:54;12.88;;;7.65;;
57067;SDS011;43391;47.448;18.904;2022-08-25T03:02:20;13.27;;;7.30;;
57067;SDS011;43391;47.448;18.904;2022-08-25T03:04:45;11.00;;;6.82;;
57067;SDS011;43391;47.448;18.904;2022-08-25T03:07:11;14.95;;;7.45;;
57067;SDS011;43391;47.448;18.904;2022-08-25T03:09:37;14.43;;;7.53;;
57067;SDS011;43391;47.448;18.904;2022-08-25T03:12:03;15.82;;;7.75;;
57067;SDS011;43391;47.448;18.904;2022-08-25T03:14:29;13.20;;;8.95;;
57067;SDS011;43391;47.448;18.904;2022-08-25T03:16:55;18.77;;;7.43;;
57067;SDS011;43391;47.448;18.904;2022-08-25T03:19:20;17.65;;;8.15;;
57067;SDS011;43391;47.448;18.904;2022-08-25T03:21:46;16.25;;;8.38;;
57067;SDS011;43391;47.448;18.904;2022-08-25T03:24:11;11.43;;;7.68;;
57067;SDS011;43391;47.448;18.904;2022-08-25T03:26:37;15.85;;;7.30;;
57067;SDS011;43391;47.448;18.904;2022-08-25T03:29:18;18.77;;;8.48;;
57067;SDS011;43391;47.448;18.904;2022-08-25T03:31:45;19.90;;;8.10;;
57067;SDS011;43391;47.448;18.904;2022-08-25T03:34:11;16.58;;;8.20;;
57067;SDS011;43391;47.448;18.904;2022-08-25T03:36:37;11.70;;;8.18;;
57067;SDS011;43391;47.448;18.904;2022-08-25T03:39:03;15.20;;;8.07;;
57067;SDS011;43391;47.448;18.904;2022-08-25T03:41:30;16.63;;;9.93;;
57067;SDS011;43391;47.448;18.904;2022-08-25T03:43:57;14.18;;;9.45;;
57067;SDS011;43391;47.448;18.904;2022-08-25T03:46:25;17.52;;;8.98;;
57067;SDS011;43391;47.448;18.904;2022-08-25T03:48:54;12.90;;;8.07;;
57067;SDS011;43391;47.448;18.904;2022-08-25T03:51:24;20.20;;;9.23;;
57067;SDS011;43391;47.448;18.904;2022-08-25T03:53:52;25.90;;;9.70;;
57067;SDS011;43391;47.448;18.904;2022-08-25T03:56:17;17.17;;;8.27;;
57067;SDS011;43391;47.448;18.904;2022-08-25T03:58:43;16.30;;;9.57;;
57067;SDS011;43391;47.448;18.904;2022-08-25T04:01:09;14.65;;;7.97;;
57067;SDS011;43391;47.448;18.904;2022-08-25T04:03:35;16.67;;;9.02;;
57067;SDS011;43391;47.448;18.904;2022-08-25T04:06:01;16.17;;;8.68;;
57067;SDS011;43391;47.448;18.904;2022-08-25T04:08:28;19.38;;;10.52;;
57067;SDS011;43391;47.448;18.904;2022-08-25T04:10:53;15.13;;;8.65;;
57067;SDS011;43391;47.448;18.904;2022-08-25T04:13:19;17.45;;;10.60;;
57067;SDS011;43391;47.448;18.904;2022-08-25T04:15:44;16.50;;;9.13;;
57067;SDS011;43391;47.448;18.904;2022-08-25T04:18:10;18.27;;;9.68;;
57067;SDS011;43391;47.448;18.904;2022-08-25T04:20:36;15.73;;;10.18;;
57067;SDS011;43391;47.448;18.904;2022-08-25T04:23:02;17.42;;;9.20;;
57067;SDS011;43391;47.448;18.904;2022-08-25T04:25:27;20.00;;;11.60;;
57067;SDS011;43391;47.448;18.904;2022-08-25T04:27:53;25.13;;;9.68;;
57067;SDS011;43391;47.448;18.904;2022-08-25T04:30:19;16.88;;;10.30;;
57067;SDS011;43391;47.448;18.904;2022-08-25T04:32:46;15.30;;;9.32;;
57067;SDS011;43391;47.448;18.904;2022-08-25T04:35:12;21.40;;;9.68;;
57067;SDS011;43391;47.448;18.904;2022-08-25T04:37:38;27.65;;;10.70;;
57067;SDS011;43391;47.448;18.904;2022-08-25T04:40:04;22.92;;;13.50;;
57067;SDS011;43391;47.448;18.904;2022-08-25T04:42:30;21.65;;;12.02;;
57067;SDS011;43391;47.448;18.904;2022-08-25T04:44:56;18.98;;;10.27;;
57067;SDS011;43391;47.448;18.904;2022-08-25T04:47:22;20.08;;;10.60;;
57067;SDS011;43391;47.448;18.904;2022-08-25T04:49:47;20.10;;;11.00;;
57067;SDS011;43391;47.448;18.904;2022-08-25T04:52:13;18.85;;;11.77;;
57067;SDS011;43391;47.448;18.904;2022-08-25T04:54:39;17.20;;;10.50;;
57067;SDS011;43391;47.448;18.904;2022-08-25T04:57:04;18.58;;;10.93;;
57067;SDS011;43391;47.448;18.904;2022-08-25T04:59:30;22.80;;;11.50;;
57067;SDS011;43391;47.448;18.904;2022-08-25T05:01:56;21.45;;;10.73;;
57067;SDS011;43391;47.448;18.904;2022-08-25T05:04:26;21.02;;;11.18;;
57067;SDS011;43391;47.448;18.904;2022-08-25T05:06:51;19.15;;;11.35;;
57067;SDS011;43391;47.448;18.904;2022-08-25T05:09:17;20.17;;;11.60;;
57067;SDS011;43391;47.448;18.904;2022-08-25T05:11:42;26.58;;;11.70;;
57067;SDS011;43391;47.448;18.904;2022-08-25T05:14:07;21.23;;;11.05;;
57067;SDS011;43391;47.448;18.904;2022-08-25T05:16:36;20.45;;;11.93;;
57067;SDS011;43391;47.448;18.904;2022-08-25T05:19:02;20.52;;;11.95;;
57067;SDS011;43391;47.448;18.904;2022-08-25T05:21:28;16.98;;;11.93;;
57067;SDS011;43391;47.448;18.904;2022-08-25T05:23:55;29.48;;;13.20;;
57067;SDS011;43391;47.448;18.904;2022-08-25T05:26:22;19.73;;;12.90;;
57067;SDS011;43391;47.448;18.904;2022-08-25T05:28:49;21.35;;;13.52;;
57067;SDS011;43391;47.448;18.904;2022-08-25T05:31:16;21.55;;;12.82;;
57067;SDS011;43391;47.448;18.904;2022-08-25T05:33:42;16.75;;;12.75;;
57067;SDS011;43391;47.448;18.904;2022-08-25T05:36:08;18.00;;;12.40;;
57067;SDS011;43391;47.448;18.904;2022-08-25T05:38:35;18.30;;;12.50;;
57067;SDS011;43391;47.448;18.904;2022-08-25T05:41:03;19.13;;;12.57;;
57067;SDS011;43391;47.448;18.904;2022-08-25T05:43:31;18.33;;;12.82;;
57067;SDS011;43391;47.448;18.904;2022-08-25T05:45:56;19.00;;;12.82;;
57067;SDS011;43391;47.448;18.904;2022-08-25T05:48:22;18.65;;;11.73;;
57067;SDS011;43391;47.448;18.904;2022-08-25T05:50:55;17.85;;;12.02;;
57067;SDS011;43391;47.448;18.904;2022-08-25T05:53:22;22.52;;;11.25;;
57067;SDS011;43391;47.448;18.904;2022-08-25T05:55:49;18.70;;;10.93;;
57067;SDS011;43391;47.448;18.904;2022-08-25T05:58:17;19.65;;;11.40;;
57067;SDS011;43391;47.448;18.904;2022-08-25T06:00:43;19.10;;;11.70;;
57067;SDS011;43391;47.448;18.904;2022-08-25T06:03:08;19.98;;;11.60;;
57067;SDS011;43391;47.448;18.904;2022-08-25T06:05:34;17.65;;;10.65;;
57067;SDS011;43391;47.448;18.904;2022-08-25T06:07:59;18.33;;;10.88;;
57067;SDS011;43391;47.448;18.904;2022-08-25T06:10:25;18.05;;;11.23;;
57067;SDS011;43391;47.448;18.904;2022-08-25T06:12:52;18.73;;;10.68;;
57067;SDS011;43391;47.448;18.904;2022-08-25T06:15:19;17.70;;;10.68;;
57067;SDS011;43391;47.448;18.904;2022-08-25T06:20:17;15.45;;;9.50;;
57067;SDS011;43391;47.448;18.904;2022-08-25T06:22:44;17.58;;;11.18;;
57067;SDS011;43391;47.448;18.904;2022-08-25T06:25:11;19.50;;;10.07;;
57067;SDS011;43391;47.448;18.904;2022-08-25T06:27:38;19.85;;;12.30;;
57067;SDS011;43391;47.448;18.904;2022-08-25T06:30:05;14.77;;;10.05;;
57067;SDS011;43391;47.448;18.904;2022-08-25T06:32:34;18.75;;;9.23;;
57067;SDS011;43391;47.448;18.904;2022-08-25T06:35:10;13.63;;;8.48;;
57067;SDS011;43391;47.448;18.904;2022-08-25T06:37:38;13.50;;;8.52;;
57067;SDS011;43391;47.448;18.904;2022-08-25T06:40:05;18.00;;;8.73;;
57067;SDS011;43391;47.448;18.904;2022-08-25T06:42:31;21.10;;;8.35;;
57067;SDS011;43391;47.448;18.904;2022-08-25T06:44:57;11.48;;;8.35;;
57067;SDS011;43391;47.448;18.904;2022-08-25T06:47:22;13.55;;;8.73;;
57067;SDS011;43391;47.448;18.904;2022-08-25T06:49:47;14.65;;;8.73;;
57067;SDS011;43391;47.448;18.904;2022-08-25T06:52:13;14.05;;;8.10;;
57067;SDS011;43391;47.448;18.904;2022-08-25T06:54:39;12.15;;;7.10;;
57067;SDS011;43391;47.448;18.904;2022-08-25T06:57:05;14.52;;;7.57;;
57067;SDS011;43391;47.448;18.904;2022-08-25T06:59:31;13.57;;;7.55;;
57067;SDS011;43391;47.448;18.904;2022-08-25T07:01:57;13.32;;;7.50;;
57067;SDS011;43391;47.448;18.904;2022-08-25T07:04:23;15.35;;;6.03;;
57067;SDS011;43391;47.448;18.904;2022-08-25T07:06:49;11.25;;;6.22;;
57067;SDS011;43391;47.448;18.904;2022-08-25T07:09:14;15.32;;;6.80;;
57067;SDS011;43391;47.448;18.904;2022-08-25T07:11:40;11.60;;;6.57;;
57067;SDS011;43391;47.448;18.904;2022-08-25T07:14:07;12.18;;;7.72;;
57067;SDS011;43391;47.448;18.904;2022-08-25T07:16:33;14.07;;;6.95;;
57067;SDS011;43391;47.448;18.904;2022-08-25T07:18:59;11.93;;;6.85;;
57067;SDS011;43391;47.448;18.904;2022-08-25T07:21:25;13.73;;;6.22;;
57067;SDS011;43391;47.448;18.904;2022-08-25T07:23:53;10.65;;;6.70;;
57067;SDS011;43391;47.448;18.904;2022-08-25T07:26:20;10.50;;;6.07;;
57067;SDS011;43391;47.448;18.904;2022-08-25T07:31:13;14.25;;;6.50;;
57067;SDS011;43391;47.448;18.904;2022-08-25T07:33:38;10.70;;;6.30;;
57067;SDS011;43391;47.448;18.904;2022-08-25T07:36:24;10.95;;;6.43;;
57067;SDS011;43391;47.448;18.904;2022-08-25T07:38:49;12.48;;;6.88;;
57067;SDS011;43391;47.448;18.904;2022-08-25T07:41:15;18.35;;;7.00;;
57067;SDS011;43391;47.448;18.904;2022-08-25T07:43:40;13.00;;;6.03;;
57067;SDS011;43391;47.448;18.904;2022-08-25T07:46:06;13.40;;;6.88;;
57067;SDS011;43391;47.448;18.904;2022-08-25T07:48:31;14.57;;;6.72;;
57067;SDS011;43391;47.448;18.904;2022-08-25T07:50:57;13.75;;;6.68;;
57067;SDS011;43391;47.448;18.904;2022-08-25T07:53:22;11.95;;;7.38;;
57067;SDS011;43391;47.448;18.904;2022-08-25T07:55:47;12.25;;;6.88;;
57067;SDS011;43391;47.448;18.904;2022-08-25T07:58:13;13.43;;;7.35;;
57067;SDS011;43391;47.448;18.904;2022-08-25T08:00:39;10.63;;;6.28;;
57067;SDS011;43391;47.448;18.904;2022-08-25T08:03:06;12.82;;;4.60;;
57067;SDS011;43391;47.448;18.904;2022-08-25T08:05:33;9.10;;;4.37;;
57067;SDS011;43391;47.448;18.904;2022-08-25T08:07:59;8.05;;;5.10;;
57067;SDS011;43391;47.448;18.904;2022-08-25T08:10:25;12.02;;;6.15;;
57067;SDS011;43391;47.448;18.904;2022-08-25T08:12:51;8.63;;;4.95;;
57067;SDS011;43391;47.448;18.904;2022-08-25T08:15:16;7.95;;;4.88;;
57067;SDS011;43391;47.448;18.904;2022-08-25T08:17:43;13.05;;;4.47;;
57067;SDS011;43391;47.448;18.904;2022-08-25T08:20:09;6.65;;;3.60;;
57067;SDS011;43391;47.448;18.904;2022-08-25T08:22:37;7.82;;;3.20;;
57067;SDS011;43391;47.448;18.904;2022-08-25T08:25:05;7.72;;;3.92;;
57067;SDS011;43391;47.448;18.904;2022-08-25T08:27:31;9.35;;;4.43;;
57067;SDS011;43391;47.448;18.904;2022-08-25T08:29:56;10.60;;;5.05;;
57067;SDS011;43391;47.448;18.904;2022-08-25T08:32:22;17.50;;;4.70;;
57067;SDS011;43391;47.448;18.904;2022-08-25T08:34:47;9.98;;;4.00;;
57067;SDS011;43391;47.448;18.904;2022-08-25T08:37:13;7.85;;;3.90;;
57067;SDS011;43391;47.448;18.904;2022-08-25T08:39:39;6.15;;;3.78;;
57067;SDS011;43391;47.448;18.904;2022-08-25T08:42:13;8.48;;;4.22;;
57067;SDS011;43391;47.448;18.904;2022-08-25T08:58:10;10.40;;;4.93;;
57067;SDS011;43391;47.448;18.904;2022-08-25T09:00:43;9.57;;;4.45;;
57067;SDS011;43391;47.448;18.904;2022-08-25T09:03:16;8.45;;;4.47;;
57067;SDS011;43391;47.448;18.904;2022-08-25T09:05:55;8.05;;;4.35;;
57067;SDS011;43391;47.448;18.904;2022-08-25T09:08:24;8.02;;;4.55;;
57067;SDS011;43391;47.448;18.904;2022-08-25T09:16:04;6.20;;;3.90;;
57067;SDS011;43391;47.448;18.904;2022-08-25T09:19:07;8.52;;;4.40;;
57067;SDS011;43391;47.448;18.904;2022-08-25T09:21:46;9.32;;;4.53;;
57067;SDS011;43391;47.448;18.904;2022-08-25T09:30:12;10.73;;;4.68;;
57067;SDS011;43391;47.448;18.904;2022-08-25T09:32:42;8.82;;;3.90;;
57067;SDS011;43391;47.448;18.904;2022-08-25T09:35:53;6.18;;;3.95;;
57067;SDS011;43391;47.448;18.904;2022-08-25T09:38:02;5.35;;;3.28;;
57067;SDS011;43391;47.448;18.904;2022-08-25T09:40:42;7.72;;;4.32;;
57067;SDS011;43391;47.448;18.904;2022-08-25T09:43:24;7.95;;;3.50;;
57067;SDS011;43391;47.448;18.904;2022-08-25T09:48:47;7.57;;;4.20;;
57067;SDS011;43391;47.448;18.904;2022-08-25T09:51:20;7.40;;;4.22;;
57067;SDS011;43391;47.448;18.904;2022-08-25T09:53:53;8.65;;;3.85;;
57067;SDS011;43391;47.448;18.904;2022-08-25T09:56:21;8.70;;;3.72;;
57067;SDS011;43391;47.448;18.904;2022-08-25T09:58:48;5.65;;;3.95;;
57067;SDS011;43391;47.448;18.904;2022-08-25T10:01:19;7.75;;;3.65;;
57067;SDS011;43391;47.448;18.904;2022-08-25T10:03:56;6.78;;;3.67;;
57067;SDS011;43391;47.448;18.904;2022-08-25T10:08:55;5.93;;;3.60;;
57067;SDS011;43391;47.448;18.904;2022-08-25T10:11:43;13.13;;;4.57;;
57067;SDS011;43391;47.448;18.904;2022-08-25T10:16:53;6.70;;;3.92;;
57067;SDS011;43391;47.448;18.904;2022-08-25T10:19:36;8.57;;;4.35;;
57067;SDS011;43391;47.448;18.904;2022-08-25T10:22:08;7.30;;;4.35;;
57067;SDS011;43391;47.448;18.904;2022-08-25T10:24:58;8.13;;;4.50;;
57067;SDS011;43391;47.448;18.904;2022-08-25T10:35:17;9.80;;;4.65;;
57067;SDS011;43391;47.448;18.904;2022-08-25T10:40:54;6.78;;;4.15;;
57067;SDS011;43391;47.448;18.904;2022-08-25T10:43:31;4.97;;;3.90;;
57067;SDS011;43391;47.448;18.904;2022-08-25T10:54:07;8.23;;;3.80;;
57067;SDS011;43391;47.448;18.904;2022-08-25T10:56:42;8.38;;;4.15;;
57067;SDS011;43391;47.448;18.904;2022-08-25T11:07:35;6.60;;;4.00;;
57067;SDS011;43391;47.448;18.904;2022-08-25T11:10:22;8.13;;;4.22;;
57067;SDS011;43391;47.448;18.904;2022-08-25T11:12:53;9.45;;;4.13;;
57067;SDS011;43391;47.448;18.904;2022-08-25T11:15:23;5.75;;;3.33;;
57067;SDS011;43391;47.448;18.904;2022-08-25T11:18:02;8.90;;;4.22;;
57067;SDS011;43391;47.448;18.904;2022-08-25T11:20:39;11.70;;;4.13;;
57067;SDS011;43391;47.448;18.904;2022-08-25T11:23:13;8.15;;;4.15;;
57067;SDS011;43391;47.448;18.904;2022-08-25T11:25:49;8.20;;;4.00;;
57067;SDS011;43391;47.448;18.904;2022-08-25T11:31:08;9.80;;;3.60;;
57067;SDS011;43391;47.448;18.904;2022-08-25T11:33:34;7.10;;;3.80;;
57067;SDS011;43391;47.448;18.904;2022-08-25T11:36:12;8.02;;;3.83;;
57067;SDS011;43391;47.448;18.904;2022-08-25T11:44:35;10.27;;;4.30;;
57067;SDS011;43391;47.448;18.904;2022-08-25T11:50:08;7.65;;;4.05;;
57067;SDS011;43391;47.448;18.904;2022-08-25T11:53:15;6.15;;;3.78;;
57067;SDS011;43391;47.448;18.904;2022-08-25T11:58:36;7.15;;;3.80;;
57067;SDS011;43391;47.448;18.904;2022-08-25T12:15:24;8.90;;;3.72;;
57067;SDS011;43391;47.448;18.904;2022-08-25T12:26:29;11.05;;;4.18;;
57067;SDS011;43391;47.448;18.904;2022-08-25T12:29:13;6.40;;;4.35;;
57067;SDS011;43391;47.448;18.904;2022-08-25T12:37:22;7.95;;;4.10;;
57067;SDS011;43391;47.448;18.904;2022-08-25T12:42:56;10.23;;;4.20;;
57067;SDS011;43391;47.448;18.904;2022-08-25T12:45:09;8.30;;;4.40;;
57067;SDS011;43391;47.448;18.904;2022-08-25T12:48:02;9.52;;;4.47;;
57067;SDS011;43391;47.448;18.904;2022-08-25T13:00:23;8.93;;;4.55;;
57067;SDS011;43391;47.448;18.904;2022-08-25T13:11:09;11.27;;;5.07;;
57067;SDS011;43391;47.448;18.904;2022-08-25T13:16:26;7.45;;;4.20;;
57067;SDS011;43391;47.448;18.904;2022-08-25T13:18:53;8.77;;;4.35;;
57067;SDS011;43391;47.448;18.904;2022-08-25T13:21:36;10.90;;;4.40;;
57067;SDS011;43391;47.448;18.904;2022-08-25T13:24:17;9.45;;;4.32;;
57067;SDS011;43391;47.448;18.904;2022-08-25T13:26:47;8.02;;;4.32;;
57067;SDS011;43391;47.448;18.904;2022-08-25T13:29:21;11.65;;;4.68;;
57067;SDS011;43391;47.448;18.904;2022-08-25T13:31:55;9.45;;;4.35;;
57067;SDS011;43391;47.448;18.904;2022-08-25T13:34:25;8.57;;;3.78;;
57067;SDS011;43391;47.448;18.904;2022-08-25T13:36:54;9.27;;;4.28;;
57067;SDS011;43391;47.448;18.904;2022-08-25T13:39:38;8.23;;;4.72;;
57067;SDS011;43391;47.448;18.904;2022-08-25T13:42:04;9.30;;;3.92;;
57067;SDS011;43391;47.448;18.904;2022-08-25T13:44:36;10.55;;;4.25;;
57067;SDS011;43391;47.448;18.904;2022-08-25T13:47:11;9.90;;;4.43;;
57067;SDS011;43391;47.448;18.904;2022-08-25T13:49:44;10.67;;;4.77;;
57067;SDS011;43391;47.448;18.904;2022-08-25T13:52:27;7.70;;;4.45;;
57067;SDS011;43391;47.448;18.904;2022-08-25T13:54:59;10.85;;;4.93;;
57067;SDS011;43391;47.448;18.904;2022-08-25T13:57:28;10.35;;;4.35;;
57067;SDS011;43391;47.448;18.904;2022-08-25T13:59:55;7.13;;;4.50;;
57067;SDS011;43391;47.448;18.904;2022-08-25T14:02:39;11.30;;;4.32;;
57067;SDS011;43391;47.448;18.904;2022-08-25T14:05:10;10.90;;;5.00;;
57067;SDS011;43391;47.448;18.904;2022-08-25T14:07:37;9.07;;;4.10;;
57067;SDS011;43391;47.448;18.904;2022-08-25T14:10:10;8.15;;;4.20;;
57067;SDS011;43391;47.448;18.904;2022-08-25T14:13:06;13.13;;;4.63;;
57067;SDS011;43391;47.448;18.904;2022-08-25T14:15:34;10.80;;;4.45;;
57067;SDS011;43391;47.448;18.904;2022-08-25T14:18:05;5.85;;;4.10;;
57067;SDS011;43391;47.448;18.904;2022-08-25T14:20:45;9.68;;;4.50;;
57067;SDS011;43391;47.448;18.904;2022-08-25T14:23:15;8.30;;;4.45;;
57067;SDS011;43391;47.448;18.904;2022-08-25T14:25:44;10.35;;;4.40;;
57067;SDS011;43391;47.448;18.904;2022-08-25T14:28:11;6.72;;;4.03;;
57067;SDS011;43391;47.448;18.904;2022-08-25T14:30:51;11.45;;;4.72;;
57067;SDS011;43391;47.448;18.904;2022-08-25T14:33:22;12.98;;;4.95;;
57067;SDS011;43391;47.448;18.904;2022-08-25T14:35:52;12.68;;;4.70;;
57067;SDS011;43391;47.448;18.904;2022-08-25T14:38:21;7.18;;;4.35;;
57067;SDS011;43391;47.448;18.904;2022-08-25T14:40:47;12.70;;;4.90;;
57067;SDS011;43391;47.448;18.904;2022-08-25T14:43:13;10.05;;;4.70;;
57067;SDS011;43391;47.448;18.904;2022-08-25T14:45:41;10.68;;;4.65;;
57067;SDS011;43391;47.448;18.904;2022-08-25T14:48:10;8.70;;;5.03;;
57067;SDS011;43391;47.448;18.904;2022-08-25T14:50:41;7.20;;;4.70;;
57067;SDS011;43391;47.448;18.904;2022-08-25T14:53:09;9.97;;;4.67;;
57067;SDS011;43391;47.448;18.904;2022-08-25T14:55:35;9.95;;;3.90;;
57067;SDS011;43391;47.448;18.904;2022-08-25T14:58:01;12.05;;;4.93;;
57067;SDS011;43391;47.448;18.904;2022-08-25T15:00:27;7.80;;;4.43;;
57067;SDS011;43391;47.448;18.904;2022-08-25T15:02:52;6.43;;;4.85;;
57067;SDS011;43391;47.448;18.904;2022-08-25T15:05:22;7.32;;;4.30;;
57067;SDS011;43391;47.448;18.904;2022-08-25T15:07:51;11.70;;;4.80;;
57067;SDS011;43391;47.448;18.904;2022-08-25T15:10:36;11.18;;;4.53;;
57067;SDS011;43391;47.448;18.904;2022-08-25T15:13:02;9.27;;;4.22;;
57067;SDS011;43391;47.448;18.904;2022-08-25T15:15:27;8.45;;;4.28;;
57067;SDS011;43391;47.448;18.904;2022-08-25T15:17:53;15.00;;;5.35;;
57067;SDS011;43391;47.448;18.904;2022-08-25T15:20:19;11.50;;;4.28;;
57067;SDS011;43391;47.448;18.904;2022-08-25T15:22:45;10.32;;;4.30;;
57067;SDS011;43391;47.448;18.904;2022-08-25T15:25:12;9.70;;;4.63;;
57067;SDS011;43391;47.448;18.904;2022-08-25T15:27:38;5.95;;;4.28;;
57067;SDS011;43391;47.448;18.904;2022-08-25T15:30:05;12.05;;;4.32;;
57067;SDS011;43391;47.448;18.904;2022-08-25T15:32:31;15.82;;;4.47;;
57067;SDS011;43391;47.448;18.904;2022-08-25T15:34:56;9.35;;;4.40;;
57067;SDS011;43391;47.448;18.904;2022-08-25T15:37:22;7.88;;;4.50;;
57067;SDS011;43391;47.448;18.904;2022-08-25T15:39:47;8.38;;;4.28;;
57067;SDS011;43391;47.448;18.904;2022-08-25T15:42:13;7.25;;;4.28;;
57067;SDS011;43391;47.448;18.904;2022-08-25T15:44:40;10.25;;;4.65;;
57067;SDS011;43391;47.448;18.904;2022-08-25T15:47:06;12.20;;;5.00;;
57067;SDS011;43391;47.448;18.904;2022-08-25T15:49:32;6.13;;;4.55;;
57067;SDS011;43391;47.448;18.904;2022-08-25T15:52:00;9.35;;;4.25;;
57067;SDS011;43391;47.448;18.904;2022-08-25T15:54:26;10.18;;;4.53;;
57067;SDS011;43391;47.448;18.904;2022-08-25T15:56:52;7.35;;;4.70;;
57067;SDS011;43391;47.448;18.904;2022-08-25T15:59:19;9.32;;;4.55;;
57067;SDS011;43391;47.448;18.904;2022-08-25T16:01:44;10.93;;;4.93;;
57067;SDS011;43391;47.448;18.904;2022-08-25T16:04:10;11.05;;;4.68;;
57067;SDS011;43391;47.448;18.904;2022-08-25T16:06:37;9.77;;;4.78;;
57067;SDS011;43391;47.448;18.904;2022-08-25T16:09:03;5.60;;;4.03;;
57067;SDS011;43391;47.448;18.904;2022-08-25T16:11:29;8.88;;;4.75;;
57067;SDS011;43391;47.448;18.904;2022-08-25T16:13:57;9.63;;;4.15;;
57067;SDS011;43391;47.448;18.904;2022-08-25T16:16:23;11.30;;;4.78;;
57067;SDS011;43391;47.448;18.904;2022-08-25T16:18:50;10.25;;;4.22;;
57067;SDS011;43391;47.448;18.904;2022-08-25T16:21:18;13.40;;;4.53;;
57067;SDS011;43391;47.448;18.904;2022-08-25T16:23:47;14.15;;;4.70;;
57067;SDS011;43391;47.448;18.904;2022-08-25T16:26:14;15.15;;;4.72;;
57067;SDS011;43391;47.448;18.904;2022-08-25T16:28:40;9.52;;;4.93;;
57067;SDS011;43391;47.448;18.904;2022-08-25T16:31:10;8.02;;;4.22;;
57067;SDS011;43391;47.448;18.904;2022-08-25T16:33:37;10.70;;;4.50;;
57067;SDS011;43391;47.448;18.904;2022-08-25T16:36:10;8.40;;;4.25;;
57067;SDS011;43391;47.448;18.904;2022-08-25T16:38:38;8.65;;;4.70;;
57067;SDS011;43391;47.448;18.904;2022-08-25T16:41:05;8.82;;;4.55;;
57067;SDS011;43391;47.448;18.904;2022-08-25T16:43:36;12.10;;;4.65;;
57067;SDS011;43391;47.448;18.904;2022-08-25T16:46:03;13.25;;;5.22;;
57067;SDS011;43391;47.448;18.904;2022-08-25T16:48:30;7.35;;;4.57;;